Raywood, Texas
Current Conditions -  °F | °C
As of 11:35 PM on Tuesday 21 Oct 2014 (Local Time) from KBMT Reporting Station
Haze Haze  
Wind Chill: 61°   Ceiling: Unl
Heat Index: 61°   Visibility: 5mi
Dew Point: 61°   Wind: 0mph
Humidity: 99%   Direction: NA
Pressure: 30.05"   Gusts: NA
Location:  30.04°N, 94.67°W
Report Text: KBMT 220435Z AUTO 00000KT 5SM BR CLR 16/16 A3005 RMK AO2 T01610160
Loading
Personal Weather Stations






























Interactive Weather Map
Tropical Storm Tracking
New forecast layout! Learn more

10-Day Weather Forecast

Advertisements
Track Severe Weather on mobile